createdAt,value
2023-04-07T00:01:29.361Z,-0.69
2023-04-07T00:04:26.545Z,-0.60
2023-04-07T00:07:23.427Z,-0.61
2023-04-07T00:10:20.339Z,-0.59
2023-04-07T00:13:17.144Z,-0.66
2023-04-07T00:16:14.022Z,-0.70
2023-04-07T00:19:10.967Z,-0.76
2023-04-07T00:22:07.908Z,-0.74
2023-04-07T00:25:05.462Z,-1.00
2023-04-07T00:28:02.349Z,-0.87
2023-04-07T00:30:59.211Z,-1.09
2023-04-07T00:33:57.789Z,-1.00
2023-04-07T00:36:54.822Z,-1.12
2023-04-07T00:39:52.274Z,-1.12
2023-04-07T00:42:49.102Z,-1.06
2023-04-07T00:45:46.261Z,-1.09
2023-04-07T00:48:43.313Z,-1.15
2023-04-07T00:51:40.509Z,-1.18
2023-04-07T00:54:39.633Z,-1.29
2023-04-07T00:57:36.527Z,-1.35
2023-04-07T01:00:50.024Z,-1.30
2023-04-07T01:04:01.026Z,-1.28
2023-04-07T01:07:06.905Z,-1.28
2023-04-07T01:10:06.870Z,-1.09
2023-04-07T01:13:11.840Z,-1.16
2023-04-07T01:16:16.859Z,-1.29
2023-04-07T01:19:33.715Z,-1.37
2023-04-07T01:22:40.545Z,-1.53
2023-04-07T01:25:59.061Z,-1.48
2023-04-07T01:29:19.987Z,-1.53
2023-04-07T01:32:20.542Z,-1.45
2023-04-07T01:35:19.211Z,-1.56
2023-04-07T01:38:17.336Z,-1.72
2023-04-07T01:41:15.952Z,-1.65
2023-04-07T01:44:14.613Z,-1.66
2023-04-07T01:47:12.846Z,-1.67
2023-04-07T01:50:12.635Z,-1.80
2023-04-07T01:53:11.177Z,-1.71
2023-04-07T01:56:08.137Z,-1.83
2023-04-07T01:59:05.033Z,-1.52
2023-04-07T02:02:02.140Z,-1.60
2023-04-07T02:05:05.564Z,-1.63
2023-04-07T02:08:08.165Z,-1.50
2023-04-07T02:11:07.900Z,-1.72
2023-04-07T02:14:07.375Z,-1.92
2023-04-07T02:17:05.944Z,-1.81
2023-04-07T02:20:06.720Z,-1.82
2023-04-07T02:23:04.091Z,-1.74
2023-04-07T02:26:01.047Z,-1.84
2023-04-07T02:28:57.890Z,-1.83
2023-04-07T02:31:56.027Z,-1.80
2023-04-07T02:34:52.936Z,-1.92
2023-04-07T02:37:50.567Z,-1.86
2023-04-07T02:40:47.424Z,-1.92
2023-04-07T02:43:44.249Z,-2.07
2023-04-07T02:46:41.436Z,-1.92
2023-04-07T02:49:38.296Z,-1.97
2023-04-07T02:52:35.414Z,-1.95
2023-04-07T02:55:32.341Z,-1.98
2023-04-07T02:58:29.226Z,-2.07
2023-04-07T03:01:26.449Z,-1.95
2023-04-07T03:04:23.554Z,-2.07
2023-04-07T03:07:20.692Z,-2.04
2023-04-07T03:10:17.694Z,-1.98
2023-04-07T03:13:16.543Z,-1.97
2023-04-07T03:16:13.362Z,-2.05
2023-04-07T03:19:10.874Z,-2.14
2023-04-07T03:22:07.807Z,-2.10
2023-04-07T03:25:05.426Z,-2.14
2023-04-07T03:28:02.268Z,-2.16
2023-04-07T03:30:59.105Z,-2.22
2023-04-07T03:33:55.958Z,-2.14
2023-04-07T03:36:52.855Z,-2.16
2023-04-07T03:39:50.882Z,-2.19
2023-04-07T03:42:48.992Z,-2.19
2023-04-07T03:45:46.767Z,-2.28
2023-04-07T03:48:43.650Z,-2.26
2023-04-07T03:51:40.557Z,-2.34
2023-04-07T03:54:37.391Z,-2.20
2023-04-07T03:57:34.241Z,-2.32
2023-04-07T04:00:33.212Z,-2.31
2023-04-07T04:03:30.323Z,-2.38
2023-04-07T04:06:27.452Z,-2.34
2023-04-07T04:09:24.277Z,-2.35
2023-04-07T04:12:21.169Z,-2.40
2023-04-07T04:15:17.975Z,-2.34
2023-04-07T04:18:14.853Z,-2.51
2023-04-07T04:21:11.811Z,-2.53
2023-04-07T04:24:08.686Z,-2.39
2023-04-07T04:27:05.772Z,-2.49
2023-04-07T04:30:03.557Z,-2.49
2023-04-07T04:33:00.547Z,-2.46
2023-04-07T04:35:57.513Z,-2.50
2023-04-07T04:38:54.313Z,-2.61
2023-04-07T04:41:51.233Z,-2.51
2023-04-07T04:44:48.062Z,-2.48
2023-04-07T04:47:44.931Z,-2.51
2023-04-07T04:50:43.164Z,-2.49
2023-04-07T04:53:39.966Z,-2.43
2023-04-07T04:56:36.842Z,-2.39
2023-04-07T04:59:34.527Z,-2.46
2023-04-07T05:02:31.996Z,-2.43
2023-04-07T05:05:29.229Z,-2.44
2023-04-07T05:08:26.057Z,-2.35
2023-04-07T05:11:22.886Z,-2.31
2023-04-07T05:14:19.728Z,-2.28
2023-04-07T05:17:16.637Z,-2.02
2023-04-07T05:20:17.221Z,-1.95
2023-04-07T05:23:16.611Z,-1.77
2023-04-07T05:26:13.455Z,-2.16
2023-04-07T05:29:10.425Z,-1.97
2023-04-07T05:32:07.375Z,-1.91
2023-04-07T05:35:04.436Z,-1.77
2023-04-07T05:38:01.617Z,-1.99
2023-04-07T05:40:58.460Z,-1.93
2023-04-07T05:43:55.368Z,-1.90
2023-04-07T05:46:52.318Z,-1.59
2023-04-07T05:49:49.211Z,-1.72
2023-04-07T05:52:46.401Z,-1.65
2023-04-07T05:55:43.663Z,-1.57
2023-04-07T05:58:40.538Z,-1.50
2023-04-07T06:01:37.391Z,-1.21
2023-04-07T06:04:35.443Z,-1.27
2023-04-07T06:07:32.304Z,-1.11
2023-04-07T06:10:29.172Z,-1.00
2023-04-07T06:13:26.241Z,-0.95
2023-04-07T06:16:23.134Z,-0.82
2023-04-07T06:19:19.974Z,-0.72
2023-04-07T06:22:16.862Z,-0.72
2023-04-07T06:25:13.714Z,-0.44
2023-04-07T06:28:10.596Z,-0.37
2023-04-07T06:31:09.163Z,-0.36
2023-04-07T06:34:06.079Z,-0.28
2023-04-07T06:37:05.387Z,-0.26
2023-04-07T06:40:02.370Z,-0.07
2023-04-07T06:42:59.271Z,-0.05
2023-04-07T06:45:56.483Z,0.27
2023-04-07T06:48:53.436Z,0.19
2023-04-07T06:51:50.572Z,0.39
2023-04-07T06:54:47.450Z,0.52
2023-04-07T06:57:44.247Z,0.64
2023-04-07T07:00:41.102Z,0.83
2023-04-07T07:03:38.064Z,0.94
2023-04-07T07:06:35.207Z,1.09
2023-04-07T07:09:32.036Z,1.23
2023-04-07T07:12:28.902Z,1.30
2023-04-07T07:15:25.805Z,1.50
2023-04-07T07:18:22.724Z,1.63
2023-04-07T07:21:21.064Z,1.60
2023-04-07T07:24:17.894Z,1.90
2023-04-07T07:27:14.692Z,2.01
2023-04-07T07:30:11.849Z,2.26
2023-04-07T07:33:08.773Z,2.35
2023-04-07T07:36:06.068Z,2.60
2023-04-07T07:39:02.949Z,2.69
2023-04-07T07:41:59.771Z,3.01
2023-04-07T07:44:56.658Z,3.28
2023-04-07T07:47:53.674Z,3.34
2023-04-07T07:50:52.410Z,3.75
2023-04-07T07:53:49.565Z,3.75
2023-04-07T07:56:46.610Z,4.74
2023-04-07T07:59:43.668Z,5.17
2023-04-07T08:02:40.769Z,5.23
2023-04-07T08:05:37.631Z,7.01
2023-04-07T08:08:34.451Z,8.74
2023-04-07T08:11:31.261Z,9.10
2023-04-07T08:14:28.144Z,7.05
2023-04-07T08:17:25.049Z,7.19
2023-04-07T08:20:22.799Z,9.54
2023-04-07T08:23:19.720Z,9.89
2023-04-07T08:26:16.657Z,9.44
2023-04-07T08:29:13.499Z,9.36
2023-04-07T08:32:10.758Z,9.62
2023-04-07T08:35:08.049Z,9.80
2023-04-07T08:38:05.743Z,9.98
2023-04-07T08:41:12.957Z,10.48
2023-04-07T08:44:11.408Z,10.03
2023-04-07T08:47:11.622Z,10.32
2023-04-07T08:50:11.233Z,12.16
2023-04-07T08:53:13.023Z,11.07
2023-04-07T08:56:12.229Z,12.20
2023-04-07T08:59:15.731Z,12.34
2023-04-07T09:02:12.806Z,12.93
2023-04-07T09:05:10.526Z,11.99
2023-04-07T09:08:07.472Z,11.64
2023-04-07T09:11:04.583Z,12.48
2023-04-07T09:14:01.800Z,13.27
2023-04-07T09:17:00.237Z,13.04
2023-04-07T09:20:01.037Z,13.40
2023-04-07T09:22:59.148Z,13.17
2023-04-07T09:25:56.064Z,13.98
2023-04-07T09:29:01.335Z,12.45
2023-04-07T09:31:58.263Z,12.86
2023-04-07T09:35:00.125Z,12.89
2023-04-07T09:38:10.136Z,12.75
2023-04-07T09:41:16.447Z,14.56
2023-04-07T09:44:13.617Z,14.55
2023-04-07T09:47:11.131Z,15.15
2023-04-07T09:50:08.262Z,13.87
2023-04-07T09:53:05.432Z,14.77
2023-04-07T09:56:02.818Z,15.55
2023-04-07T09:59:01.470Z,15.02
2023-04-07T10:01:59.478Z,13.33
2023-04-07T10:04:56.409Z,14.04
2023-04-07T10:07:54.502Z,14.39
2023-04-07T10:10:51.596Z,13.79
2023-04-07T10:13:48.886Z,13.01
2023-04-07T10:16:48.168Z,16.46
2023-04-07T10:19:48.089Z,14.32
2023-04-07T10:22:46.654Z,13.57
2023-04-07T10:25:46.081Z,15.85
2023-04-07T10:28:46.098Z,14.88
2023-04-07T10:31:43.124Z,16.64
2023-04-07T10:34:54.760Z,17.20
2023-04-07T10:38:06.960Z,16.02
2023-04-07T10:41:33.646Z,17.74
2023-04-07T10:44:46.875Z,16.78
2023-04-07T10:47:58.834Z,15.60
2023-04-07T10:51:10.626Z,15.72
2023-04-07T10:54:20.862Z,14.63
2023-04-07T10:57:18.159Z,17.22
2023-04-07T11:00:16.335Z,15.49
2023-04-07T11:03:14.189Z,16.28
2023-04-07T11:06:14.651Z,14.27
2023-04-07T11:09:21.238Z,16.58
2023-04-07T11:12:25.003Z,15.26
2023-04-07T11:15:23.241Z,15.15
2023-04-07T11:18:23.705Z,16.09
2023-04-07T11:21:20.574Z,15.65
2023-04-07T11:24:34.119Z,15.02
2023-04-07T11:27:30.962Z,15.34
2023-04-07T11:30:27.907Z,16.18
2023-04-07T11:33:32.225Z,16.66
2023-04-07T11:36:40.407Z,17.71
2023-04-07T11:39:37.586Z,17.57
2023-04-07T11:42:41.093Z,15.75
2023-04-07T11:45:37.922Z,16.07
2023-04-07T11:48:37.166Z,16.44
2023-04-07T11:51:34.067Z,14.62
2023-04-07T11:54:46.950Z,14.99
2023-04-07T11:57:43.778Z,15.47
2023-04-07T12:00:58.032Z,16.57
2023-04-07T12:04:01.901Z,16.03
2023-04-07T12:07:12.224Z,16.17
2023-04-07T12:10:20.369Z,16.09
2023-04-07T12:13:17.651Z,16.48
2023-04-07T12:16:14.504Z,17.06
2023-04-07T12:19:11.363Z,16.18
2023-04-07T12:22:08.220Z,15.01
2023-04-07T12:25:05.825Z,14.39
2023-04-07T12:28:03.021Z,15.87
2023-04-07T12:31:00.171Z,15.39
2023-04-07T12:33:57.029Z,14.21
2023-04-07T12:36:53.961Z,14.40
2023-04-07T12:39:50.986Z,14.45
2023-04-07T12:42:48.058Z,15.59
2023-04-07T12:45:44.955Z,15.21
2023-04-07T12:48:41.896Z,15.52
2023-04-07T12:51:40.108Z,16.49
2023-04-07T12:54:37.123Z,15.85
2023-04-07T12:57:33.943Z,16.86
2023-04-07T13:00:31.483Z,15.77
2023-04-07T13:03:28.538Z,15.25
2023-04-07T13:06:25.622Z,15.15
2023-04-07T13:09:22.461Z,15.30
2023-04-07T13:12:19.349Z,14.22
2023-04-07T13:15:16.417Z,14.09
2023-04-07T13:18:13.676Z,14.24
2023-04-07T13:21:42.551Z,13.42
2023-04-07T13:24:27.635Z,13.47
2023-04-07T13:27:24.507Z,13.35
2023-04-07T13:30:22.742Z,13.44
2023-04-07T13:33:19.858Z,14.09
2023-04-07T13:36:16.683Z,13.58
2023-04-07T13:39:13.679Z,14.29
2023-04-07T13:42:12.587Z,15.42
2023-04-07T13:45:10.631Z,17.13
2023-04-07T13:48:07.776Z,16.97
2023-04-07T13:51:04.713Z,17.68
2023-04-07T13:54:01.515Z,16.82
2023-04-07T13:56:58.464Z,17.16
2023-04-07T13:59:55.703Z,17.98
2023-04-07T14:02:52.700Z,16.57
2023-04-07T14:05:49.628Z,18.13
2023-04-07T14:08:46.449Z,16.99
2023-04-07T14:11:43.297Z,17.31
2023-04-07T14:14:40.195Z,17.52
2023-04-07T14:17:37.548Z,17.75
2023-04-07T14:20:34.447Z,18.23
2023-04-07T14:23:37.408Z,18.56
2023-04-07T14:26:34.710Z,18.41
2023-04-07T14:29:31.745Z,16.77
2023-04-07T14:32:29.756Z,16.98
2023-04-07T14:35:26.886Z,16.28
2023-04-07T14:38:25.719Z,15.92
2023-04-07T14:41:24.250Z,17.38
2023-04-07T14:44:21.348Z,15.40
2023-04-07T14:47:18.325Z,15.07
2023-04-07T14:50:15.135Z,14.04
2023-04-07T14:53:12.031Z,13.63
2023-04-07T14:56:08.931Z,13.53
2023-04-07T14:59:05.885Z,13.86
2023-04-07T15:02:02.810Z,13.63
2023-04-07T15:05:00.083Z,13.25
2023-04-07T15:07:57.379Z,13.16
2023-04-07T15:10:54.218Z,13.20
2023-04-07T15:13:51.278Z,13.12
2023-04-07T15:16:50.287Z,12.90
2023-04-07T15:19:47.676Z,13.70
2023-04-07T15:22:44.543Z,13.70
2023-04-07T15:25:41.347Z,12.84
2023-04-07T15:28:38.897Z,12.63
2023-04-07T15:31:35.825Z,12.93
2023-04-07T15:34:32.666Z,12.28
2023-04-07T15:37:29.472Z,12.21
2023-04-07T15:40:26.305Z,12.16
2023-04-07T15:43:23.637Z,12.29
2023-04-07T15:46:20.496Z,12.24
2023-04-07T15:49:23.136Z,12.28
2023-04-07T15:52:21.784Z,12.08
2023-04-07T15:55:18.888Z,12.88
2023-04-07T15:58:15.872Z,12.20
2023-04-07T16:01:13.018Z,11.93
2023-04-07T16:04:09.969Z,11.93
2023-04-07T16:07:06.901Z,11.90
2023-04-07T16:10:04.601Z,11.91
2023-04-07T16:13:01.410Z,11.78
2023-04-07T16:15:58.470Z,11.54
2023-04-07T16:18:55.407Z,11.44
2023-04-07T16:21:53.233Z,11.17
2023-04-07T16:24:50.074Z,11.31
2023-04-07T16:27:47.297Z,10.98
2023-04-07T16:30:44.122Z,11.13
2023-04-07T16:33:41.014Z,11.10
2023-04-07T16:36:38.101Z,10.57
2023-04-07T16:39:34.924Z,10.73
2023-04-07T16:42:31.969Z,10.36
2023-04-07T16:45:28.847Z,10.26
2023-04-07T16:48:26.292Z,10.08
2023-04-07T16:51:24.769Z,10.09
2023-04-07T16:54:21.606Z,9.88
2023-04-07T16:57:18.721Z,9.82
2023-04-07T17:00:16.189Z,9.82
2023-04-07T17:03:16.273Z,9.81
2023-04-07T17:06:13.345Z,9.80
2023-04-07T17:09:12.219Z,9.53
2023-04-07T17:12:09.103Z,9.47
2023-04-07T17:15:06.763Z,9.43
2023-04-07T17:18:03.929Z,9.31
2023-04-07T17:21:00.845Z,9.22
2023-04-07T17:23:57.999Z,9.27
2023-04-07T17:26:54.939Z,9.15
2023-04-07T17:29:51.771Z,8.85
2023-04-07T17:32:50.760Z,8.99
2023-04-07T17:35:49.874Z,8.64
2023-04-07T17:38:46.839Z,8.68
2023-04-07T17:41:43.889Z,8.70
2023-04-07T17:44:40.800Z,8.52
2023-04-07T17:47:37.753Z,8.40
2023-04-07T17:50:34.671Z,8.13
2023-04-07T17:53:32.801Z,7.98
2023-04-07T17:56:29.680Z,8.04
2023-04-07T17:59:26.509Z,8.06
2023-04-07T18:02:23.575Z,7.94
2023-04-07T18:05:21.067Z,7.93
2023-04-07T18:08:18.089Z,7.98
2023-04-07T18:11:16.191Z,7.92
2023-04-07T18:14:13.112Z,7.68
2023-04-07T18:17:10.895Z,7.58
2023-04-07T18:20:08.232Z,7.16
2023-04-07T18:23:05.767Z,7.09
2023-04-07T18:26:05.121Z,6.99
2023-04-07T18:29:02.054Z,7.10
2023-04-07T18:31:58.893Z,6.96
2023-04-07T18:34:55.814Z,6.73
2023-04-07T18:37:52.710Z,6.67
2023-04-07T18:40:50.568Z,6.68
2023-04-07T18:43:48.456Z,6.16
2023-04-07T18:46:46.409Z,6.41
2023-04-07T18:49:43.618Z,6.16
2023-04-07T18:52:40.650Z,5.97
2023-04-07T18:55:37.488Z,5.91
2023-04-07T18:58:35.702Z,6.20
2023-04-07T19:01:32.699Z,5.88
2023-04-07T19:04:29.567Z,5.83
2023-04-07T19:07:26.560Z,5.72
2023-04-07T19:10:23.590Z,5.62
2023-04-07T19:13:20.469Z,5.72
2023-04-07T19:16:17.715Z,5.67
2023-04-07T19:19:14.723Z,5.80
2023-04-07T19:22:12.499Z,5.53
2023-04-07T19:25:09.759Z,5.57
2023-04-07T19:28:06.769Z,5.46
2023-04-07T19:31:06.553Z,5.47
2023-04-07T19:34:03.363Z,5.25
2023-04-07T19:37:00.342Z,5.25
2023-04-07T19:40:02.857Z,5.39
2023-04-07T19:43:00.814Z,5.38
2023-04-07T19:45:58.005Z,5.12
2023-04-07T19:48:54.934Z,4.94
2023-04-07T19:51:54.123Z,4.73
2023-04-07T19:54:51.334Z,4.94
2023-04-07T19:57:48.679Z,5.05
2023-04-07T20:00:49.603Z,4.51
2023-04-07T20:03:46.805Z,4.73
2023-04-07T20:06:43.796Z,4.62
2023-04-07T20:09:40.611Z,4.56
2023-04-07T20:12:37.432Z,4.30
2023-04-07T20:15:34.314Z,4.45
2023-04-07T20:18:32.361Z,4.34
2023-04-07T20:21:29.305Z,4.43
2023-04-07T20:24:26.315Z,4.40
2023-04-07T20:27:23.133Z,4.07
2023-04-07T20:30:19.960Z,3.76
2023-04-07T20:33:16.966Z,3.92
2023-04-07T20:36:13.890Z,3.79
2023-04-07T20:39:11.053Z,3.76
2023-04-07T20:42:07.954Z,3.92
2023-04-07T20:45:06.420Z,3.74
2023-04-07T20:48:03.549Z,3.75
2023-04-07T20:51:01.301Z,3.65
2023-04-07T20:53:58.105Z,3.48
2023-04-07T20:56:55.044Z,3.50
2023-04-07T20:59:51.964Z,3.45
2023-04-07T21:02:49.309Z,3.48
2023-04-07T21:05:48.279Z,3.34
2023-04-07T21:08:45.097Z,3.39
2023-04-07T21:11:43.469Z,3.07
2023-04-07T21:14:40.406Z,3.11
2023-04-07T21:17:37.263Z,2.96
2023-04-07T21:20:37.238Z,2.93
2023-04-07T21:23:34.236Z,2.80
2023-04-07T21:26:31.099Z,2.92
2023-04-07T21:29:30.833Z,2.96
2023-04-07T21:32:27.759Z,2.84
2023-04-07T21:35:30.972Z,2.94
2023-04-07T21:38:28.132Z,2.85
2023-04-07T21:41:24.993Z,2.60
2023-04-07T21:44:22.567Z,2.86
2023-04-07T21:47:19.503Z,2.98
2023-04-07T21:50:16.865Z,3.14
2023-04-07T21:53:13.669Z,3.00
2023-04-07T21:56:10.877Z,2.92
2023-04-07T21:59:07.897Z,2.94
2023-04-07T22:02:04.890Z,3.02
2023-04-07T22:05:01.791Z,3.05
2023-04-07T22:07:58.740Z,3.28
2023-04-07T22:10:55.586Z,2.88
2023-04-07T22:13:52.406Z,2.80
2023-04-07T22:16:49.222Z,2.67
2023-04-07T22:19:46.453Z,2.73
2023-04-07T22:22:43.993Z,2.74
2023-04-07T22:25:41.029Z,2.91
2023-04-07T22:28:37.849Z,2.70
2023-04-07T22:31:34.778Z,2.71
2023-04-07T22:34:31.637Z,2.73
2023-04-07T22:37:28.456Z,2.79
2023-04-07T22:40:25.425Z,2.91
2023-04-07T22:43:22.407Z,2.80
2023-04-07T22:46:19.252Z,2.78
2023-04-07T22:49:16.700Z,2.90
2023-04-07T22:52:13.519Z,3.30
2023-04-07T22:55:10.477Z,3.35
2023-04-07T22:58:07.317Z,3.54
2023-04-07T23:01:04.330Z,3.63
2023-04-07T23:04:01.492Z,3.66
2023-04-07T23:06:58.435Z,3.86
2023-04-07T23:09:55.391Z,3.80
2023-04-07T23:12:54.034Z,3.87
2023-04-07T23:15:50.877Z,3.86
2023-04-07T23:18:47.843Z,4.10
2023-04-07T23:21:44.860Z,3.92
2023-04-07T23:24:42.166Z,4.04
2023-04-07T23:27:39.042Z,4.02
2023-04-07T23:30:37.357Z,4.03
2023-04-07T23:33:34.296Z,4.05
2023-04-07T23:36:31.477Z,4.07
2023-04-07T23:39:28.297Z,4.09
2023-04-07T23:42:25.264Z,4.09
2023-04-07T23:45:22.985Z,4.13
2023-04-07T23:48:19.818Z,4.09
2023-04-07T23:51:16.689Z,4.20
2023-04-07T23:54:13.947Z,4.13
2023-04-07T23:57:10.770Z,4.12
